Time;durP1;ratioP1;P1;durP2;ratioP2;P2;SDS_P1;SDS_P2;PMS_P1;PMS_P2;Temp;Humidity;BMP_temperature;BMP_pressure;BME280_temperature;BME280_humidity;BME280_pressure;Samples;Min_cycle;Max_cycle;Signal;HPM_P1;HPM_P2
2023/03/03 00:00:02;;;;;;;26.10;15.17;;;2.90;99.90;;;;;;4893279;29;37835;-77
2023/03/03 00:02:28;;;;;;;26.10;15.13;;;2.90;99.90;;;;;;4888311;29;37388;-77
2023/03/03 00:04:54;;;;;;;23.83;15.50;;;2.90;99.90;;;;;;4877373;29;37728;-77
2023/03/03 00:07:22;;;;;;;30.67;17.37;;;2.80;99.90;;;;;;4866170;29;39695;-78
2023/03/03 00:09:49;;;;;;;28.17;14.60;;;2.80;99.90;;;;;;4890882;29;39210;-78
2023/03/03 00:12:25;;;;;;;32.47;17.77;;;2.80;99.90;;;;;;4870270;29;36563;-78
2023/03/03 00:14:52;;;;;;;29.30;17.50;;;2.70;99.90;;;;;;4877496;29;37644;-78
2023/03/03 00:17:29;;;;;;;33.70;17.73;;;2.70;99.90;;;;;;4874817;29;36995;-78
2023/03/03 00:19:55;;;;;;;29.87;17.67;;;2.60;99.90;;;;;;4874562;29;37986;-78
2023/03/03 00:22:27;;;;;;;30.50;17.50;;;2.60;99.90;;;;;;4874886;29;36284;-78
2023/03/03 00:24:53;;;;;;;37.90;19.23;;;2.60;99.90;;;;;;4892124;29;40660;-78
2023/03/03 00:27:30;;;;;;;29.77;16.70;;;2.50;99.90;;;;;;4875782;29;36991;-78
2023/03/03 00:29:59;;;;;;;33.10;18.07;;;2.50;99.90;;;;;;4889002;29;39265;-78
2023/03/03 00:32:49;;;;;;;35.67;19.27;;;2.50;99.90;;;;;;4888605;29;37112;-78
2023/03/03 00:35:29;;;;;;;38.77;21.70;;;2.50;99.90;;;;;;4888451;29;38732;-78
2023/03/03 00:37:58;;;;;;;35.40;20.30;;;2.50;99.90;;;;;;4887422;29;39142;-77
2023/03/03 00:40:46;;;;;;;41.20;21.47;;;2.50;99.90;;;;;;4888682;29;38431;-77
2023/03/03 00:43:16;;;;;;;38.27;22.30;;;2.50;99.90;;;;;;4875761;29;37770;-77
2023/03/03 00:45:49;;;;;;;35.30;20.10;;;2.50;99.90;;;;;;4893750;29;38923;-77
2023/03/03 00:48:26;;;;;;;;;;;2.50;99.90;;;;;;4876771;29;38454;-78
2023/03/03 00:50:57;;;;;;;45.70;23.47;;;2.50;99.90;;;;;;4891919;29;37967;-76
2023/03/03 00:53:26;;;;;;;47.33;24.23;;;2.50;99.90;;;;;;4879275;29;35820;-78
2023/03/03 00:55:53;;;;;;;48.60;23.57;;;2.50;99.90;;;;;;4897037;29;37441;-76
2023/03/03 00:58:20;;;;;;;45.20;22.97;;;2.60;99.90;;;;;;4894363;29;38283;-77
2023/03/03 01:00:52;;;;;;;42.73;22.70;;;2.60;99.90;;;;;;4896490;29;37149;-76
2023/03/03 01:03:21;;;;;;;55.73;25.63;;;2.50;99.90;;;;;;4896916;29;36870;-77
2023/03/03 01:05:48;;;;;;;48.93;25.80;;;2.60;99.90;;;;;;4881064;29;37462;-77
2023/03/03 01:08:15;;;;;;;47.10;25.47;;;2.60;99.90;;;;;;4878530;29;38073;-77
2023/03/03 01:10:49;;;;;;;47.97;26.20;;;2.60;99.90;;;;;;4885265;29;37315;-77
2023/03/03 01:13:16;;;;;;;50.43;25.70;;;2.60;99.90;;;;;;4884550;29;37786;-77
2023/03/03 01:15:42;;;;;;;43.90;22.53;;;2.60;99.90;;;;;;4879245;29;37407;-77
2023/03/03 01:18:10;;;;;;;45.80;24.60;;;2.60;99.90;;;;;;4882943;29;37737;-77
2023/03/03 01:20:36;;;;;;;57.77;25.97;;;2.60;99.90;;;;;;4881857;29;37124;-77
2023/03/03 01:23:02;;;;;;;42.70;22.93;;;2.50;99.90;;;;;;4898309;29;37783;-77
2023/03/03 01:25:29;;;;;;;52.10;25.57;;;2.50;99.90;;;;;;4897039;29;38863;-76
2023/03/03 01:27:56;;;;;;;38.90;22.87;;;2.50;99.90;;;;;;4884759;29;37784;-77
2023/03/03 01:30:22;;;;;;;41.33;23.10;;;2.40;99.90;;;;;;4883686;29;37581;-76
2023/03/03 01:32:48;;;;;;;46.90;23.03;;;2.30;99.90;;;;;;4898780;29;37433;-77
2023/03/03 01:35:15;;;;;;;46.90;23.03;;;2.30;99.90;;;;;;4888411;29;38576;-77
2023/03/03 01:37:41;;;;;;;43.73;23.50;;;2.20;99.90;;;;;;4900530;29;39149;-77
2023/03/03 01:40:16;;;;;;;43.73;23.00;;;2.20;99.90;;;;;;4903539;29;38772;-77
2023/03/03 01:42:42;;;;;;;50.13;24.57;;;2.10;99.90;;;;;;4890550;29;36551;-77
2023/03/03 01:45:17;;;;;;;38.57;22.60;;;2.10;99.90;;;;;;4876493;29;39257;-77
2023/03/03 01:48:12;;;;;;;46.50;22.67;;;2.10;99.90;;;;;;4903755;29;38621;-77
2023/03/03 01:50:54;;;;;;;47.70;23.63;;;2.10;99.90;;;;;;4890548;29;48704;-76
2023/03/03 01:53:27;;;;;;;37.63;20.65;;;2.00;99.90;;;;;;4874704;29;36508;-77
2023/03/03 01:55:53;;;;;;;45.33;22.27;;;2.00;99.90;;;;;;4897357;29;40144;-77
2023/03/03 01:58:26;;;;;;;49.90;24.27;;;2.00;99.90;;;;;;4881078;29;35916;-77
2023/03/03 02:03:29;;;;;;;42.00;21.50;;;2.00;99.90;;;;;;5050147;23;19935;-76
2023/03/03 02:06:02;;;;;;;45.83;21.50;;;2.00;99.90;;;;;;4902222;28;37817;-77
2023/03/03 02:08:34;;;;;;;;;;;2.00;99.90;;;;;;4917917;28;48285;-77
2023/03/03 02:11:01;;;;;;;47.70;20.60;;;2.00;99.90;;;;;;4907194;29;36990;-76
2023/03/03 02:13:27;;;;;;;44.47;20.60;;;2.10;99.90;;;;;;4907702;29;47123;-76
2023/03/03 02:15:55;;;;;;;36.50;20.17;;;2.10;99.90;;;;;;4920956;29;38399;-76
2023/03/03 02:18:21;;;;;;;40.03;20.60;;;2.20;99.90;;;;;;4905969;28;37264;-77
2023/03/03 02:20:50;;;;;;;38.80;20.17;;;2.20;99.90;;;;;;4904806;29;37381;-77
2023/03/03 02:23:38;;;;;;;33.27;17.83;;;2.20;99.90;;;;;;4903019;28;36942;-77
2023/03/03 02:26:07;;;;;;;34.07;18.13;;;2.30;99.90;;;;;;4899727;28;39021;-77
2023/03/03 02:28:37;;;;;;;33.40;18.75;;;2.30;99.90;;;;;;4917724;28;40405;-76
2023/03/03 02:31:09;;;;;;;36.00;18.80;;;2.30;99.90;;;;;;4904149;29;40396;-76
2023/03/03 02:33:35;;;;;;;33.97;17.85;;;2.30;99.90;;;;;;4902874;29;36591;-77
2023/03/03 02:36:01;;;;;;;31.30;17.00;;;2.30;99.90;;;;;;4901611;28;38839;-77
2023/03/03 02:38:58;;;;;;;29.23;16.83;;;2.30;99.90;;;;;;4922333;28;38556;-77
2023/03/03 02:41:53;;;;;;;31.43;16.60;;;2.30;99.90;;;;;;4893470;29;37072;-77
2023/03/03 02:44:21;;;;;;;29.23;14.20;;;2.30;99.90;;;;;;4925530;28;36830;-77
2023/03/03 02:46:49;;;;;;;25.60;14.60;;;2.30;99.90;;;;;;4907321;29;38375;-76
2023/03/03 02:49:19;;;;;;;27.60;14.83;;;2.30;99.90;;;;;;4905691;29;37566;-76
2023/03/03 02:51:45;;;;;;;31.17;16.50;;;2.30;99.90;;;;;;4910826;28;36861;-78
2023/03/03 02:54:12;;;;;;;26.10;15.17;;;2.30;99.90;;;;;;4927650;28;37520;-77
2023/03/03 02:56:38;;;;;;;25.43;15.10;;;2.30;99.90;;;;;;4914051;29;39332;-77
2023/03/03 02:59:05;;;;;;;31.50;14.17;;;2.30;99.90;;;;;;4926972;28;38413;-76
2023/03/03 03:01:35;;;;;;;34.97;14.70;;;2.30;99.90;;;;;;4915985;28;38907;-76
2023/03/03 03:04:15;;;;;;;24.27;14.33;;;2.30;99.90;;;;;;4903792;28;36679;-76
2023/03/03 03:06:42;;;;;;;25.50;14.27;;;2.30;99.90;;;;;;4928247;28;38875;-77
2023/03/03 03:09:09;;;;;;;25.37;12.90;;;2.30;99.90;;;;;;4911839;29;38493;-76
2023/03/03 03:11:36;;;;;;;26.70;13.63;;;2.30;99.90;;;;;;4901835;28;36783;-77
2023/03/03 03:14:07;;;;;;;23.70;13.43;;;2.30;99.90;;;;;;4904229;29;37305;-77
2023/03/03 03:16:33;;;;;;;22.23;11.87;;;2.30;99.90;;;;;;4912806;29;37543;-76
2023/03/03 03:19:00;;;;;;;23.53;12.90;;;2.20;99.90;;;;;;4900870;28;37688;-76
2023/03/03 03:21:27;;;;;;;26.57;14.33;;;2.20;99.90;;;;;;4923921;28;47155;-77
2023/03/03 03:23:53;;;;;;;23.20;14.13;;;2.20;99.90;;;;;;4907859;28;37055;-76
2023/03/03 03:26:20;;;;;;;25.40;13.63;;;2.10;99.90;;;;;;4905248;28;39028;-77
2023/03/03 03:28:47;;;;;;;26.10;15.13;;;2.10;99.90;;;;;;4924668;28;38491;-77
2023/03/03 03:31:15;;;;;;;22.93;12.37;;;2.10;99.90;;;;;;4910462;28;37121;-77
2023/03/03 03:33:41;;;;;;;25.37;15.03;;;2.00;99.90;;;;;;4925063;28;37232;-77
2023/03/03 03:36:07;;;;;;;26.90;14.37;;;2.00;99.90;;;;;;4920766;28;39327;-77
2023/03/03 03:38:35;;;;;;;27.50;16.00;;;2.00;99.90;;;;;;4909003;29;38016;-77
2023/03/03 03:41:02;;;;;;;25.30;15.17;;;2.10;99.90;;;;;;4906796;28;36908;-77
2023/03/03 03:43:28;;;;;;;28.37;16.80;;;2.20;99.90;;;;;;4928031;29;49403;-77
2023/03/03 03:45:54;;;;;;;26.57;16.90;;;2.20;99.90;;;;;;4910545;29;37801;-77
2023/03/03 03:48:21;;;;;;;32.30;18.07;;;2.20;99.90;;;;;;4912105;29;38452;-77
2023/03/03 03:50:48;;;;;;;35.40;20.07;;;2.20;99.90;;;;;;4928596;28;38124;-76
2023/03/03 03:53:15;;;;;;;33.03;19.00;;;2.30;99.90;;;;;;4902773;29;37679;-77
2023/03/03 03:55:41;;;;;;;38.70;21.63;;;2.30;99.90;;;;;;4923253;28;37367;-77
2023/03/03 03:58:08;;;;;;;36.20;19.63;;;2.30;99.90;;;;;;4910974;29;37165;-77
2023/03/03 04:00:34;;;;;;;36.43;21.03;;;2.30;99.90;;;;;;4920580;28;37842;-77
2023/03/03 04:03:00;;;;;;;45.17;23.17;;;2.30;99.90;;;;;;4929566;29;37606;-76
2023/03/03 04:05:26;;;;;;;41.57;23.23;;;2.20;99.90;;;;;;4912015;29;38402;-77
2023/03/03 04:07:52;;;;;;;37.43;20.73;;;2.30;99.90;;;;;;4926922;28;39701;-77
2023/03/03 04:10:19;;;;;;;35.93;20.10;;;2.20;99.90;;;;;;4919945;28;39421;-76
2023/03/03 04:12:45;;;;;;;39.37;22.43;;;2.20;99.90;;;;;;4924726;28;37522;-77
2023/03/03 04:15:12;;;;;;;31.57;19.60;;;2.20;99.90;;;;;;4929669;29;39584;-77
2023/03/03 04:17:39;;;;;;;33.77;19.27;;;2.10;99.90;;;;;;4909827;29;37698;-77
2023/03/03 04:20:06;;;;;;;47.20;23.43;;;2.10;99.90;;;;;;4912203;29;37273;-77
2023/03/03 04:22:34;;;;;;;39.43;22.03;;;2.10;99.90;;;;;;4928284;28;36498;-77
2023/03/03 04:25:03;;;;;;;37.43;21.07;;;2.10;99.90;;;;;;4902010;29;39090;-77
2023/03/03 04:27:36;;;;;;;36.40;21.00;;;2.00;99.90;;;;;;4910267;29;47264;-76
2023/03/03 04:30:04;;;;;;;34.43;21.40;;;2.00;99.90;;;;;;4912486;28;38044;-77
2023/03/03 04:32:32;;;;;;;36.50;20.67;;;2.00;99.90;;;;;;4931679;28;35652;-76
2023/03/03 04:34:59;;;;;;;39.33;22.33;;;1.90;99.90;;;;;;4918290;29;37683;-76
2023/03/03 04:37:25;;;;;;;38.50;20.80;;;2.00;99.90;;;;;;4928130;28;36402;-77
2023/03/03 04:39:51;;;;;;;37.83;21.87;;;2.00;99.90;;;;;;4914706;28;37265;-77
2023/03/03 04:42:17;;;;;;;46.93;22.83;;;2.00;99.90;;;;;;4913646;28;39547;-77
2023/03/03 04:44:44;;;;;;;48.50;23.17;;;2.10;99.90;;;;;;4906491;29;37600;-77
2023/03/03 04:47:10;;;;;;;46.80;24.43;;;2.10;99.90;;;;;;4930134;28;39435;-76
2023/03/03 04:49:36;;;;;;;44.47;23.23;;;2.10;99.90;;;;;;4931338;28;38003;-77
2023/03/03 04:52:02;;;;;;;49.67;25.00;;;2.20;99.90;;;;;;4931815;28;36801;-77
2023/03/03 04:54:28;;;;;;;48.87;24.73;;;2.20;99.90;;;;;;4928552;28;38267;-76
2023/03/03 04:56:54;;;;;;;45.07;23.03;;;2.20;99.90;;;;;;4914165;29;38893;-77
2023/03/03 04:59:20;;;;;;;52.90;25.90;;;2.30;99.90;;;;;;4933310;28;39300;-76
2023/03/03 05:01:46;;;;;;;52.67;25.03;;;2.30;99.90;;;;;;4937074;28;37633;-77
2023/03/03 05:04:12;;;;;;;48.43;25.20;;;2.30;99.90;;;;;;4920170;28;37768;-76
2023/03/03 05:06:39;;;;;;;49.57;25.23;;;2.30;99.90;;;;;;4928310;28;38785;-77
2023/03/03 05:09:05;;;;;;;52.33;25.77;;;2.30;99.90;;;;;;4915096;29;38061;-77
2023/03/03 05:11:31;;;;;;;53.00;25.40;;;2.40;99.90;;;;;;4915656;29;37987;-77
2023/03/03 05:13:57;;;;;;;54.30;26.73;;;2.30;99.90;;;;;;4915250;28;39063;-77
2023/03/03 05:16:24;;;;;;;49.87;25.93;;;2.30;99.90;;;;;;4912695;29;38287;-77
2023/03/03 05:18:50;;;;;;;52.17;26.37;;;2.40;99.90;;;;;;4928897;28;38842;-77
2023/03/03 05:21:16;;;;;;;55.17;26.33;;;2.40;99.90;;;;;;4915413;29;37590;-76
2023/03/03 05:23:42;;;;;;;49.17;25.80;;;2.40;99.90;;;;;;4911621;28;38301;-77
2023/03/03 05:26:08;;;;;;;57.33;27.60;;;2.50;99.90;;;;;;4913622;29;37560;-77
2023/03/03 05:28:34;;;;;;;57.30;28.03;;;2.50;99.90;;;;;;4913383;28;36972;-77
2023/03/03 05:31:00;;;;;;;50.63;27.23;;;2.60;99.90;;;;;;4933399;28;37446;-77
2023/03/03 05:33:26;;;;;;;59.07;28.03;;;2.50;99.90;;;;;;4932936;28;39524;-76
2023/03/03 05:35:56;;;;;;;60.00;28.10;;;2.60;99.90;;;;;;4915542;28;38304;-77
2023/03/03 05:38:23;;;;;;;51.57;27.07;;;2.60;99.90;;;;;;4926740;28;37973;-77
2023/03/03 05:40:50;;;;;;;53.90;26.47;;;2.70;99.90;;;;;;4909835;28;36440;-77
2023/03/03 05:43:16;;;;;;;52.90;26.27;;;2.70;99.90;;;;;;4914437;29;37482;-77
2023/03/03 05:45:42;;;;;;;55.10;27.83;;;2.70;99.90;;;;;;4912232;29;37358;-77
2023/03/03 05:48:09;;;;;;;46.20;25.40;;;2.70;99.90;;;;;;4913757;28;37669;-76
2023/03/03 05:50:36;;;;;;;54.07;26.33;;;2.80;99.90;;;;;;4930322;28;37070;-76
2023/03/03 05:53:03;;;;;;;49.83;25.37;;;2.80;99.90;;;;;;4907409;28;37715;-76
2023/03/03 05:55:29;;;;;;;49.17;26.87;;;2.80;99.90;;;;;;4927152;28;39253;-77
2023/03/03 05:57:56;;;;;;;53.10;25.20;;;2.90;99.90;;;;;;4912375;29;37294;-76
2023/03/03 06:00:22;;;;;;;46.47;25.17;;;2.90;99.90;;;;;;4910115;28;37538;-76
2023/03/03 06:02:48;;;;;;;43.17;23.17;;;2.90;99.90;;;;;;4907543;29;37934;-76
2023/03/03 06:05:15;;;;;;;52.47;24.00;;;2.90;99.90;;;;;;4909910;29;38897;-76
2023/03/03 06:07:41;;;;;;;52.17;24.87;;;2.90;99.90;;;;;;4912523;28;38296;-76
2023/03/03 06:10:08;;;;;;;47.67;24.07;;;3.00;99.90;;;;;;4907689;29;36291;-76
2023/03/03 06:12:34;;;;;;;42.43;24.03;;;3.00;99.90;;;;;;4910258;28;39908;-77
2023/03/03 06:15:00;;;;;;;42.53;23.10;;;3.10;99.90;;;;;;4898410;28;37718;-77
2023/03/03 06:17:27;;;;;;;48.40;24.03;;;3.10;99.90;;;;;;4906709;29;37194;-77
2023/03/03 06:19:53;;;;;;;44.83;23.37;;;3.00;99.90;;;;;;4907995;29;36311;-77
2023/03/03 06:22:19;;;;;;;47.80;25.07;;;3.00;99.90;;;;;;4918590;28;38681;-78
2023/03/03 06:24:45;;;;;;;46.27;23.57;;;3.10;99.90;;;;;;4906740;29;38080;-77
2023/03/03 06:27:11;;;;;;;43.97;23.60;;;3.00;99.90;;;;;;4926352;28;38223;-78
2023/03/03 06:29:37;;;;;;;50.97;22.33;;;3.10;99.90;;;;;;4928584;28;36813;-76
2023/03/03 06:32:03;;;;;;;38.77;20.87;;;3.10;99.90;;;;;;4924372;28;39010;-79
2023/03/03 06:34:30;;;;;;;39.50;21.87;;;3.10;99.90;;;;;;4903799;29;38215;-79
2023/03/03 06:36:56;;;;;;;40.40;22.97;;;3.10;99.90;;;;;;4916103;28;38389;-78
2023/03/03 06:39:22;;;;;;;36.97;21.67;;;3.10;99.90;;;;;;4921041;28;37239;-75
2023/03/03 06:41:48;;;;;;;52.13;24.53;;;3.10;99.90;;;;;;4923083;28;37680;-76
2023/03/03 06:44:15;;;;;;;40.90;23.07;;;3.10;99.90;;;;;;4904732;29;37054;-77
2023/03/03 06:46:41;;;;;;;40.27;21.90;;;3.10;99.90;;;;;;4923588;28;38674;-77
2023/03/03 06:49:07;;;;;;;46.60;25.37;;;3.20;99.90;;;;;;4904944;29;37726;-77
2023/03/03 06:51:37;;;;;;;48.67;25.10;;;3.20;99.90;;;;;;4924189;28;39170;-76
2023/03/03 06:54:20;;;;;;;40.53;23.70;;;3.20;99.90;;;;;;4917673;28;38107;-77
2023/03/03 06:56:48;;;;;;;42.37;23.60;;;3.20;99.90;;;;;;4918006;28;38111;-77
2023/03/03 06:59:20;;;;;;;40.50;23.27;;;3.30;99.90;;;;;;4907252;28;37581;-76
2023/03/03 07:01:50;;;;;;;49.33;23.43;;;3.30;99.90;;;;;;4905182;28;37560;-77
2023/03/03 07:04:24;;;;;;;53.93;26.20;;;3.30;99.90;;;;;;4911181;29;38031;-77
2023/03/03 07:06:50;;;;;;;46.27;23.90;;;3.30;99.90;;;;;;4906967;28;37134;-77
2023/03/03 07:09:23;;;;;;;42.23;22.77;;;3.30;99.90;;;;;;4908606;29;36236;-77
2023/03/03 07:12:00;;;;;;;43.53;23.23;;;3.30;99.90;;;;;;4910035;28;37658;-77
2023/03/03 07:14:28;;;;;;;37.73;22.10;;;3.40;99.90;;;;;;4908556;28;37203;-77
2023/03/03 07:17:03;;;;;;;38.07;21.17;;;3.40;99.90;;;;;;4905315;29;37176;-77
2023/03/03 07:19:35;;;;;;;38.37;20.67;;;3.40;99.90;;;;;;4926644;28;49045;-77
2023/03/03 07:22:14;;;;;;;39.60;21.13;;;3.40;99.90;;;;;;4923565;28;38826;-77
2023/03/03 07:24:42;;;;;;;48.03;21.47;;;3.40;99.90;;;;;;4910379;29;47553;-77
2023/03/03 07:27:13;;;;;;;49.53;23.70;;;3.40;99.90;;;;;;4924223;28;39063;-77
2023/03/03 07:29:42;;;;;;;44.07;21.27;;;3.50;99.90;;;;;;4907063;28;40179;-77
2023/03/03 07:32:27;;;;;;;34.30;20.20;;;3.50;99.90;;;;;;4900172;29;39147;-76
2023/03/03 07:34:55;;;;;;;40.10;21.03;;;3.50;99.90;;;;;;4923560;28;38916;-76
2023/03/03 07:37:37;;;;;;;35.40;19.63;;;3.50;99.90;;;;;;4925934;28;37760;-77
2023/03/03 07:40:25;;;;;;;35.50;19.17;;;3.50;99.90;;;;;;4907785;29;37641;-77
2023/03/03 07:42:51;;;;;;;38.97;20.53;;;3.60;99.90;;;;;;4909341;29;46991;-76
2023/03/03 07:45:33;;;;;;;37.53;20.67;;;3.60;99.90;;;;;;4924804;28;39372;-77
2023/03/03 07:48:23;;;;;;;32.95;18.35;;;3.70;99.90;;;;;;4910546;29;37194;-77
2023/03/03 07:50:50;;;;;;;28.07;16.67;;;3.70;99.90;;;;;;4920992;28;49227;-77
2023/03/03 07:53:33;;;;;;;29.87;16.37;;;3.60;99.90;;;;;;4921393;28;38901;-77
2023/03/03 07:56:00;;;;;;;28.17;16.23;;;3.60;99.90;;;;;;4904448;28;37633;-77
2023/03/03 07:58:46;;;;;;;26.20;16.47;;;3.60;99.90;;;;;;4903735;28;38236;-77
2023/03/03 08:01:31;;;;;;;27.10;16.17;;;3.50;99.90;;;;;;4919597;28;37032;-76
2023/03/03 08:03:57;;;;;;;28.67;15.37;;;3.50;99.90;;;;;;4919031;28;39007;-77
2023/03/03 08:06:31;;;;;;;27.90;16.13;;;3.60;99.90;;;;;;4921300;28;38298;-77
2023/03/03 08:09:29;;;;;;;27.70;15.80;;;3.60;99.90;;;;;;4905160;28;36987;-77
2023/03/03 08:12:18;;;;;;;27.20;16.00;;;3.70;99.90;;;;;;4913226;28;48305;-78
2023/03/03 08:14:44;;;;;;;27.37;15.93;;;3.90;99.90;;;;;;4918436;28;46953;-78
2023/03/03 08:17:20;;;;;;;24.77;14.07;;;3.90;99.90;;;;;;4903839;28;36196;-78
2023/03/03 08:19:47;;;;;;;27.27;14.97;;;3.90;99.90;;;;;;4911775;29;37960;-79
2023/03/03 08:22:23;;;;;;;27.37;16.17;;;4.00;99.90;;;;;;4906162;29;36307;-77
2023/03/03 08:24:50;;;;;;;24.07;16.07;;;4.00;99.90;;;;;;4906893;29;37657;-77
2023/03/03 08:27:16;;;;;;;28.67;16.40;;;4.10;99.90;;;;;;4921298;29;39158;-77
2023/03/03 08:29:42;;;;;;;26.03;15.80;;;4.20;99.90;;;;;;4904996;29;38053;-78
2023/03/03 08:32:08;;;;;;;24.40;15.53;;;4.10;99.90;;;;;;4921383;28;37560;-76
2023/03/03 08:34:34;;;;;;;27.87;16.63;;;4.20;99.90;;;;;;4902517;29;37605;-78
2023/03/03 08:37:00;;;;;;;25.40;15.53;;;4.30;99.90;;;;;;4905372;29;38414;-78
2023/03/03 08:39:26;;;;;;;24.87;15.67;;;4.30;99.90;;;;;;4903179;29;38147;-78
2023/03/03 08:41:53;;;;;;;27.97;15.90;;;4.30;99.90;;;;;;4919057;28;37560;-78
2023/03/03 08:44:19;;;;;;;28.53;16.37;;;4.40;99.90;;;;;;4905762;28;38613;-79
2023/03/03 08:46:45;;;;;;;23.40;14.47;;;4.40;99.90;;;;;;4911678;29;37656;-79
2023/03/03 08:49:12;;;;;;;23.87;15.07;;;4.50;99.90;;;;;;4927481;28;37752;-79
2023/03/03 08:51:38;;;;;;;23.87;15.07;;;4.70;99.90;;;;;;4911261;28;36678;-79
2023/03/03 08:54:04;;;;;;;22.17;14.20;;;4.70;99.90;;;;;;4932595;28;38582;-79
2023/03/03 08:56:30;;;;;;;22.33;15.03;;;4.60;99.90;;;;;;4934914;29;38512;-79
2023/03/03 08:58:56;;;;;;;25.80;15.37;;;4.80;99.90;;;;;;4909848;28;36926;-80
2023/03/03 09:01:22;;;;;;;23.63;14.37;;;4.80;99.90;;;;;;4917112;29;35927;-79
2023/03/03 09:03:48;;;;;;;24.53;16.67;;;4.90;99.90;;;;;;4913817;29;38091;-80
2023/03/03 09:06:15;;;;;;;19.43;14.00;;;5.10;99.90;;;;;;4915109;29;37522;-80
2023/03/03 09:08:41;;;;;;;19.80;13.33;;;5.20;99.90;;;;;;4916388;28;38343;-80
2023/03/03 09:11:14;;;;;;;20.70;13.70;;;5.20;99.90;;;;;;4933744;28;37409;-79
2023/03/03 09:13:40;;;;;;;22.57;12.77;;;5.40;99.90;;;;;;4913325;29;37111;-78
2023/03/03 09:16:14;;;;;;;18.00;12.57;;;5.40;99.90;;;;;;4916013;29;38633;-78
2023/03/03 09:18:41;;;;;;;22.33;12.60;;;5.40;99.90;;;;;;4916030;29;37765;-78
2023/03/03 09:21:31;;;;;;;18.77;11.77;;;5.50;99.90;;;;;;4936632;28;37431;-78
2023/03/03 09:23:59;;;;;;;16.03;10.80;;;5.40;99.90;;;;;;4918080;28;38755;-77
2023/03/03 09:26:42;;;;;;;18.80;10.90;;;5.30;99.90;;;;;;4926722;29;37845;-79
2023/03/03 09:29:14;;;;;;;17.40;10.50;;;5.30;99.90;;;;;;4912838;28;40768;-77
2023/03/03 09:31:50;;;;;;;17.35;9.98;;;5.40;99.90;;;;;;4915471;29;36576;-77
2023/03/03 09:34:39;;;;;;;15.87;10.43;;;5.60;99.90;;;;;;4930523;29;39880;-78
2023/03/03 09:37:31;;;;;;;15.77;9.37;;;5.80;99.90;;;;;;4930666;29;39296;-77
2023/03/03 09:39:58;;;;;;;16.33;10.50;;;5.80;99.90;;;;;;4914138;29;37181;-77
2023/03/03 09:42:36;;;;;;;15.70;9.87;;;5.90;99.90;;;;;;4912920;28;35935;-77
2023/03/03 09:45:39;;;;;;;16.50;10.03;;;5.70;99.90;;;;;;4916710;29;38333;-77
2023/03/03 09:48:21;;;;;;;13.47;9.50;;;5.60;99.90;;;;;;4916243;29;47168;-77
2023/03/03 09:50:59;;;;;;;18.70;10.20;;;5.50;99.90;;;;;;4931949;29;38313;-77
2023/03/03 09:53:56;;;;;;;14.93;9.13;;;5.50;99.90;;;;;;4926352;28;37123;-78
2023/03/03 09:56:31;;;;;;;13.20;8.57;;;5.60;99.90;;;;;;4921840;28;38413;-77
2023/03/03 09:59:15;;;;;;;12.07;7.80;;;5.60;99.90;;;;;;4905074;29;37697;-77
2023/03/03 10:02:18;;;;;;;12.40;8.87;;;5.60;99.90;;;;;;4905167;29;47289;-77
2023/03/03 10:05:02;;;;;;;17.85;7.80;;;5.70;99.90;;;;;;4923838;28;48715;-75
2023/03/03 10:07:41;;;;;;;11.83;6.77;;;5.70;99.90;;;;;;4905607;29;37364;-75
2023/03/03 10:10:27;;;;;;;14.57;7.30;;;6.00;99.90;;;;;;4919832;28;38297;-75
2023/03/03 10:13:14;;;;;;;11.90;6.70;;;6.20;99.90;;;;;;4903264;29;38661;-76
2023/03/03 10:15:52;;;;;;;12.20;5.83;;;6.30;99.90;;;;;;4905476;29;47426;-77
2023/03/03 10:18:29;;;;;;;12.10;6.20;;;6.20;99.90;;;;;;4910997;29;37959;-77
2023/03/03 10:21:07;;;;;;;10.43;5.83;;;6.60;99.90;;;;;;4913826;28;37283;-76
2023/03/03 10:24:11;;;;;;;9.57;5.93;;;6.70;99.90;;;;;;4911113;29;47425;-75
2023/03/03 10:27:05;;;;;;;12.07;6.53;;;6.80;99.90;;;;;;4924143;29;49806;-76
2023/03/03 10:29:37;;;;;;;10.70;5.53;;;7.00;99.90;;;;;;4905430;28;48060;-73
2023/03/03 10:32:12;;;;;;;11.75;6.28;;;6.90;99.90;;;;;;4909277;29;38643;-74
2023/03/03 10:35:11;;;;;;;9.93;6.17;;;6.80;99.90;;;;;;4905208;29;37150;-73
2023/03/03 10:37:49;;;;;;;10.47;5.50;;;6.90;99.90;;;;;;4906815;29;47379;-77
2023/03/03 10:40:36;;;;;;;8.10;5.00;;;6.90;99.90;;;;;;4908055;29;38962;-75
2023/03/03 10:43:17;;;;;;;8.33;5.63;;;7.00;99.90;;;;;;4927632;28;38849;-75
2023/03/03 10:46:03;;;;;;;7.77;4.70;;;7.20;99.90;;;;;;4926231;29;38478;-76
2023/03/03 10:48:54;;;;;;;12.30;4.57;;;7.60;99.90;;;;;;4903573;28;49041;-76
2023/03/03 10:51:28;;;;;;;7.90;4.47;;;7.60;99.90;;;;;;4927912;28;38894;-76
2023/03/03 10:54:06;;;;;;;6.83;4.00;;;7.60;99.90;;;;;;4910665;29;37225;-76
2023/03/03 10:56:41;;;;;;;9.30;4.27;;;7.40;99.90;;;;;;4926894;29;48881;-78
2023/03/03 10:59:19;;;;;;;6.87;4.10;;;7.30;99.90;;;;;;4903421;28;36146;-74
2023/03/03 11:02:10;;;;;;;8.03;4.20;;;7.00;99.90;;;;;;4926955;28;38541;-76
2023/03/03 11:04:43;;;;;;;9.20;5.03;;;6.70;99.90;;;;;;4910455;29;46935;-74
2023/03/03 11:07:27;;;;;;;6.80;4.17;;;6.70;99.90;;;;;;4910552;29;38058;-76
2023/03/03 11:10:10;;;;;;;8.13;4.50;;;7.00;99.90;;;;;;4926902;29;37429;-76
2023/03/03 11:12:52;;;;;;;7.83;4.20;;;7.30;99.90;;;;;;4923869;29;48515;-76
2023/03/03 11:15:33;;;;;;;7.13;3.53;;;7.40;99.90;;;;;;4927601;29;39157;-76
2023/03/03 11:18:18;;;;;;;6.67;3.53;;;7.60;99.90;;;;;;4911611;29;37356;-76
2023/03/03 11:21:10;;;;;;;7.73;4.27;;;7.90;99.90;;;;;;4928600;29;48660;-75
2023/03/03 11:23:59;;;;;;;8.43;3.60;;;8.20;99.90;;;;;;4912359;29;47538;-76
2023/03/03 11:26:40;;;;;;;7.10;3.77;;;8.50;99.90;;;;;;4911804;29;37169;-76
2023/03/03 11:29:19;;;;;;;8.17;3.40;;;8.90;99.90;;;;;;4929947;29;39150;-76
2023/03/03 11:31:48;;;;;;;5.00;2.93;;;9.00;99.90;;;;;;4915387;29;35986;-77
2023/03/03 11:34:36;;;;;;;6.43;2.07;;;9.20;99.90;;;;;;4928249;28;39193;-76
2023/03/03 11:37:23;;;;;;;3.70;2.30;;;9.00;99.90;;;;;;4913702;29;37264;-76
2023/03/03 11:39:54;;;;;;;4.57;2.00;;;9.20;99.90;;;;;;4935198;29;38139;-76
2023/03/03 11:42:31;;;;;;;4.47;2.43;;;9.30;99.90;;;;;;4907473;29;35846;-77
2023/03/03 11:45:28;;;;;;;6.23;2.50;;;9.10;99.90;;;;;;4925766;28;39084;-77
2023/03/03 11:48:07;;;;;;;3.10;2.17;;;9.20;99.90;;;;;;4904716;29;47360;-76
2023/03/03 11:50:46;;;;;;;6.23;2.27;;;9.20;99.90;;;;;;4912146;29;47123;-77
2023/03/03 11:53:39;;;;;;;5.30;2.40;;;9.20;99.90;;;;;;4915565;29;35543;-77
2023/03/03 11:56:16;;;;;;;7.93;2.20;;;9.50;99.90;;;;;;4913164;29;38011;-76
2023/03/03 11:59:01;;;;;;;4.40;1.80;;;9.40;99.90;;;;;;4921756;28;38279;-77
2023/03/03 12:02:06;;;;;;;6.97;2.60;;;9.50;99.90;;;;;;4907197;28;47288;-77
2023/03/03 12:04:53;;;;;;;4.43;1.90;;;9.50;99.90;;;;;;4918604;28;48116;-77
2023/03/03 12:07:39;;;;;;;7.03;2.10;;;9.60;99.90;;;;;;4922257;28;39017;-76
2023/03/03 12:10:38;;;;;;;2.80;1.53;;;10.00;99.90;;;;;;4922260;29;37977;-77
2023/03/03 12:13:13;;;;;;;5.73;2.27;;;10.00;99.90;;;;;;4907513;29;38352;-78
2023/03/03 12:16:03;;;;;;;4.93;2.00;;;10.10;99.90;;;;;;4908267;29;35933;-77
2023/03/03 12:18:45;;;;;;;3.40;1.48;;;10.10;99.90;;;;;;4921550;28;47637;-77
2023/03/03 12:21:29;;;;;;;3.15;1.63;;;10.10;99.90;;;;;;4907967;29;37687;-76
2023/03/03 12:24:32;;;;;;;4.87;1.70;;;9.90;99.90;;;;;;4905727;29;37692;-77
2023/03/03 12:27:28;;;;;;;3.60;1.53;;;9.90;99.90;;;;;;4920212;28;48788;-77
2023/03/03 12:30:02;;;;;;;2.28;1.40;;;10.10;99.90;;;;;;4924360;28;47852;-77
2023/03/03 12:32:40;;;;;;;3.38;1.60;;;10.40;99.90;;;;;;4919129;28;38865;-77
2023/03/03 12:35:28;;;;;;;4.70;1.50;;;10.80;99.90;;;;;;4921963;28;37901;-77
2023/03/03 12:38:18;;;;;;;2.80;1.30;;;11.10;99.90;;;;;;4905836;28;35912;-77
2023/03/03 12:41:00;;;;;;;2.80;1.60;;;11.10;99.90;;;;;;4904009;29;46940;-78
2023/03/03 12:43:48;;;;;;;4.70;1.42;;;11.00;99.90;;;;;;4917830;28;47172;-78
2023/03/03 12:46:42;;;;;;;4.05;1.63;;;10.50;99.90;;;;;;4925688;28;39617;-78
2023/03/03 12:49:09;;;;;;;3.10;1.40;;;10.10;99.90;;;;;;4914849;29;35856;-76
2023/03/03 12:51:51;;;;;;;4.25;1.40;;;9.90;99.90;;;;;;4910954;29;38908;-75
2023/03/03 12:54:28;;;;;;;3.95;1.65;;;9.80;99.90;;;;;;4928478;28;38291;-77
2023/03/03 12:57:04;;;;;;;7.13;1.95;;;9.60;99.90;;;;;;4909999;29;35622;-78
2023/03/03 13:00:08;;;;;;;2.73;1.47;;;9.50;99.90;;;;;;4907610;29;47088;-77
2023/03/03 13:02:34;;;;;;;4.57;1.53;;;9.40;99.90;;;;;;4923808;29;39563;-77
2023/03/03 13:05:19;;;;;;;4.72;1.83;;;9.10;99.90;;;;;;4910226;29;38576;-76
2023/03/03 13:08:01;;;;;;;7.60;1.97;;;9.10;99.90;;;;;;4910595;28;47293;-76
2023/03/03 13:10:27;;;;;;;4.60;1.37;;;9.20;99.90;;;;;;4913879;29;47238;-76
2023/03/03 13:13:19;;;;;;;4.47;1.60;;;9.20;99.90;;;;;;4932615;28;39190;-74